Time;durP1;ratioP1;P1;durP2;ratioP2;P2;SDS_P1;SDS_P2;PMS_P1;PMS_P2;Temp;Humidity;BMP_temperature;BMP_pressure;BME280_temperature;BME280_humidity;BME280_pressure;Samples;Min_cycle;Max_cycle;Signal;HPM_P1;HPM_P2
2022/02/22 00:01:38;;;;;;;;;;;;;;;;;;5083388;28;19920;-71
2022/02/22 00:04:04;;;;;;;;;;;;;;;;;;5083396;28;19924;-73
2022/02/22 00:06:29;;;;;;;;;;;;;;;;;;5083200;28;19928;-72
2022/02/22 00:08:54;;;;;;;;;;;;;;;;;;5083440;28;19920;-72
2022/02/22 00:11:21;;;;;;;;;;;;;;;;;;5080096;28;19924;-71
2022/02/22 00:13:48;;;;;;;;;;;;;;;;;;5080964;28;19966;-72
2022/02/22 00:16:13;;;;;;;;;;;;;;;;;;5060986;28;20280;-72
2022/02/22 00:18:38;;;;;;;;;;;;;;;;;;5065030;28;19916;-72
2022/02/22 00:21:04;;;;;;;;;;;;;;;;;;5079707;28;20325;-72
2022/02/22 00:23:29;;;;;;;;;;;;;;;;;;5061204;28;19924;-72
2022/02/22 00:25:55;;;;;;;;;;;;;;;;;;5060945;28;19946;-72
2022/02/22 00:28:20;;;;;;;;;;;;;;;;;;5063973;28;19919;-72
2022/02/22 00:30:46;;;;;;;;;;;;;;;;;;5079946;28;19924;-74
2022/02/22 00:33:12;;;;;;;;;;;;;;;;;;5078637;28;20019;-72
2022/02/22 00:35:38;;;;;;;;;;;;;;;;;;5078606;28;20045;-72
2022/02/22 00:38:03;;;;;;;;;;;;;;;;;;5083254;28;20023;-73
2022/02/22 00:40:28;;;;;;;;;;;;;;;;;;5066490;28;20396;-73
2022/02/22 00:42:54;;;;;;;;;;;;;;;;;;5062787;28;20318;-72
2022/02/22 00:45:19;;;;;;;;;;;;;;;;;;5084649;28;19943;-72
2022/02/22 00:47:44;;;;;;;;;;;;;;;;;;5062823;28;20421;-71
2022/02/22 00:50:10;;;;;;;;;;;;;;;;;;5082850;28;19924;-71
2022/02/22 00:52:35;;;;;;;;;;;;;;;;;;5064797;28;19950;-72
2022/02/22 00:55:01;;;;;;;;;;;;;;;;;;5058141;28;19932;-72
2022/02/22 00:57:26;;;;;;;;;;;;;;;;;;5058175;28;20185;-72
2022/02/22 00:59:51;;;;;;;;;;;;;;;;;;5063387;28;19923;-72
2022/02/22 01:02:17;;;;;;;;;;;;;;;;;;5082463;28;20349;-72
2022/02/22 01:04:43;;;;;;;;;;;;;;;;;;5082833;28;20288;-72
2022/02/22 01:07:16;;;;;;;;;;;;;;;;;;5082871;28;19922;-73
2022/02/22 01:09:41;;;;;;;;;;;;;;;;;;5064990;28;19920;-72
2022/02/22 01:12:09;;;;;;;;;;;;;;;;;;5083063;28;20320;-73
2022/02/22 01:14:34;;;;;;;;;;;;;;;;;;5082394;28;19916;-71
2022/02/22 01:16:59;;;;;;;;;;;;;;;;;;5082757;28;20117;-72
2022/02/22 01:19:25;;;;;;;;;;;;;;;;;;5082414;28;19916;-72
2022/02/22 01:21:50;;;;;;;;;;;;;;;;;;5059334;28;19924;-71
2022/02/22 01:24:16;;;;;;;;;;;;;;;;;;5048111;28;20403;-73
2022/02/22 01:26:41;;;;;;;;;;;;;;;;;;5084703;28;19923;-72
2022/02/22 01:29:06;;;;;;;;;;;;;;;;;;5064240;28;20344;-72
2022/02/22 01:31:32;;;;;;;;;;;;;;;;;;5075722;28;20007;-71
2022/02/22 01:33:57;;;;;;;;;;;;;;;;;;5080762;28;19916;-71
2022/02/22 01:36:23;;;;;;;;;;;;;;;;;;5082288;28;19912;-71
2022/02/22 01:38:51;;;;;;;;;;;;;;;;;;5063711;28;20022;-73
2022/02/22 01:41:16;;;;;;;;;;;;;;;;;;5064085;28;19924;-71
2022/02/22 01:43:42;;;;;;;;;;;;;;;;;;5063600;28;19916;-71
2022/02/22 01:46:07;;;;;;;;;;;;;;;;;;5081977;28;20023;-73
2022/02/22 01:48:32;;;;;;;;;;;;;;;;;;5081734;28;19924;-69
2022/02/22 01:50:58;;;;;;;;;;;;;;;;;;5076121;28;19986;-72
2022/02/22 01:53:23;;;;;;;;;;;;;;;;;;5079706;28;19955;-71
2022/02/22 01:55:49;;;;;;;;;;;;;;;;;;5059021;28;19916;-69
2022/02/22 01:58:14;;;;;;;;;;;;;;;;;;5063452;28;19916;-69
2022/02/22 02:00:42;;;;;;;;;;;;;;;;;;5082210;28;19916;-71
2022/02/22 02:03:08;;;;;;;;;;;;;;;;;;5082118;28;20351;-70
2022/02/22 02:05:33;;;;;;;;;;;;;;;;;;5081821;28;20138;-71
2022/02/22 02:07:59;;;;;;;;;;;;;;;;;;5081996;28;19952;-70
2022/02/22 02:10:26;;;;;;;;;;;;;;;;;;5062758;28;20447;-69
2022/02/22 02:12:51;;;;;;;;;;;;;;;;;;5060106;28;19924;-70
2022/02/22 02:15:16;;;;;;;;;;;;;;;;;;5081054;28;20284;-71
2022/02/22 02:17:42;;;;;;;;;;;;;;;;;;5085191;28;19923;-71
2022/02/22 02:20:09;;;;;;;;;;;;;;;;;;5082227;28;19920;-71
2022/02/22 02:22:35;;;;;;;;;;;;;;;;;;5080827;28;19962;-71
2022/02/22 02:25:01;;;;;;;;;;;;;;;;;;5085267;28;19924;-71
2022/02/22 02:27:26;;;;;;;;;;;;;;;;;;5063512;28;19927;-69
2022/02/22 02:29:51;;;;;;;;;;;;;;;;;;5081620;28;20343;-71
2022/02/22 02:32:17;;;;;;;;;;;;;;;;;;5084985;28;20295;-71
2022/02/22 02:34:42;;;;;;;;;;;;;;;;;;5084945;28;19924;-71
2022/02/22 02:37:07;;;;;;;;;;;;;;;;;;5080840;28;20011;-71
2022/02/22 02:39:33;;;;;;;;;;;;;;;;;;5081688;28;19956;-71
2022/02/22 02:41:58;;;;;;;;;;;;;;;;;;5085093;28;19919;-69
2022/02/22 02:44:24;;;;;;;;;;;;;;;;;;5066268;28;20022;-69
2022/02/22 02:46:50;;;;;;;;;;;;;;;;;;5084209;28;19969;-69
2022/02/22 02:49:18;;;;;;;;;;;;;;;;;;5077713;28;19927;-70
2022/02/22 02:51:43;;;;;;;;;;;;;;;;;;5086833;28;20003;-72
2022/02/22 02:54:09;;;;;;;;;;;;;;;;;;5064293;28;20054;-71
2022/02/22 02:56:35;;;;;;;;;;;;;;;;;;5079166;28;19916;-71
2022/02/22 02:59:02;;;;;;;;;;;;;;;;;;5082815;28;19927;-70
2022/02/22 03:01:29;;;;;;;;;;;;;;;;;;5084444;28;20046;-71
2022/02/22 03:03:56;;;;;;;;;;;;;;;;;;5060897;28;19927;-71
2022/02/22 03:06:21;;;;;;;;;;;;;;;;;;5082065;28;20013;-72
2022/02/22 03:08:47;;;;;;;;;;;;;;;;;;5065961;28;19959;-71
2022/02/22 03:11:12;;;;;;;;;;;;;;;;;;5079388;28;19916;-72
2022/02/22 03:13:38;;;;;;;;;;;;;;;;;;5084342;28;20299;-72
2022/02/22 03:16:03;;;;;;;;;;;;;;;;;;5082840;28;20340;-72
2022/02/22 03:18:29;;;;;;;;;;;;;;;;;;5060383;28;19927;-72
2022/02/22 03:20:55;;;;;;;;;;;;;;;;;;5083247;28;20375;-72
2022/02/22 03:23:20;;;;;;;;;;;;;;;;;;5078308;28;20390;-73
2022/02/22 03:25:46;;;;;;;;;;;;;;;;;;5084050;28;19927;-73
2022/02/22 03:28:11;;;;;;;;;;;;;;;;;;5064827;28;20391;-73
2022/02/22 03:30:38;;;;;;;;;;;;;;;;;;5084313;28;20287;-72
2022/02/22 03:33:04;;;;;;;;;;;;;;;;;;5084245;28;20244;-72
2022/02/22 03:35:29;;;;;;;;;;;;;;;;;;5065716;28;19985;-72
2022/02/22 03:37:54;;;;;;;;;;;;;;;;;;5059572;28;19916;-72
2022/02/22 03:40:20;;;;;;;;;;;;;;;;;;5083113;28;19947;-72
2022/02/22 03:42:45;;;;;;;;;;;;;;;;;;5077099;28;20224;-72
2022/02/22 03:45:11;;;;;;;;;;;;;;;;;;5065195;28;19935;-73
2022/02/22 03:47:37;;;;;;;;;;;;;;;;;;5059118;28;20029;-73
2022/02/22 03:50:03;;;;;;;;;;;;;;;;;;5065716;28;19967;-72
2022/02/22 03:52:30;;;;;;;;;;;;;;;;;;5083215;28;19916;-72
2022/02/22 03:54:55;;;;;;;;;;;;;;;;;;5065238;28;20265;-72
2022/02/22 03:57:20;;;;;;;;;;;;;;;;;;5083472;28;19931;-72
2022/02/22 03:59:46;;;;;;;;;;;;;;;;;;5083344;28;19916;-73
2022/02/22 04:02:11;;;;;;;;;;;;;;;;;;5083424;28;19916;-73
2022/02/22 04:04:36;;;;;;;;;;;;;;;;;;5083346;28;19928;-72
2022/02/22 04:07:02;;;;;;;;;;;;;;;;;;5077378;28;20017;-72
2022/02/22 04:09:27;;;;;;;;;;;;;;;;;;5083013;28;19981;-72
2022/02/22 04:11:53;;;;;;;;;;;;;;;;;;5075166;28;19920;-72
2022/02/22 04:14:18;;;;;;;;;;;;;;;;;;5077488;28;19917;-72
2022/02/22 04:16:43;;;;;;;;;;;;;;;;;;5083102;28;19943;-72
2022/02/22 04:19:09;;;;;;;;;;;;;;;;;;5083169;28;19917;-73
2022/02/22 04:21:34;;;;;;;;;;;;;;;;;;5083002;28;19931;-72
2022/02/22 04:24:01;;;;;;;;;;;;;;;;;;5080948;28;19916;-72
2022/02/22 04:26:27;;;;;;;;;;;;;;;;;;5078095;28;19920;-72
2022/02/22 04:28:54;;;;;;;;;;;;;;;;;;5083110;28;19916;-72
2022/02/22 04:31:19;;;;;;;;;;;;;;;;;;5082950;28;20113;-71
2022/02/22 04:33:45;;;;;;;;;;;;;;;;;;5082928;28;19923;-73
2022/02/22 04:36:10;;;;;;;;;;;;;;;;;;5065107;28;19951;-73
2022/02/22 04:38:35;;;;;;;;;;;;;;;;;;5083188;28;20019;-73
2022/02/22 04:41:01;;;;;;;;;;;;;;;;;;5081264;28;19920;-73
2022/02/22 04:43:26;;;;;;;;;;;;;;;;;;5078364;28;19928;-72
2022/02/22 04:45:51;;;;;;;;;;;;;;;;;;5083046;28;20581;-72
2022/02/22 04:48:17;;;;;;;;;;;;;;;;;;5061397;28;20406;-73
2022/02/22 04:50:43;;;;;;;;;;;;;;;;;;5082598;28;19920;-72
2022/02/22 04:53:09;;;;;;;;;;;;;;;;;;5079155;28;19920;-72
2022/02/22 04:55:34;;;;;;;;;;;;;;;;;;5061106;28;19916;-72
2022/02/22 04:58:00;;;;;;;;;;;;;;;;;;5060985;28;20296;-72
2022/02/22 05:00:25;;;;;;;;;;;;;;;;;;5086015;28;19916;-72
2022/02/22 05:02:51;;;;;;;;;;;;;;;;;;5061064;28;19970;-73
2022/02/22 05:05:16;;;;;;;;;;;;;;;;;;5064372;28;19921;-72
2022/02/22 05:07:41;;;;;;;;;;;;;;;;;;5079245;28;19916;-72
2022/02/22 05:10:07;;;;;;;;;;;;;;;;;;5082392;28;19920;-73
2022/02/22 05:12:33;;;;;;;;;;;;;;;;;;5079581;28;19929;-72
2022/02/22 05:14:58;;;;;;;;;;;;;;;;;;5083020;28;20037;-72
2022/02/22 05:17:23;;;;;;;;;;;;;;;;;;5060293;28;19966;-72
2022/02/22 05:19:49;;;;;;;;;;;;;;;;;;5080449;28;20379;-73
2022/02/22 05:22:14;;;;;;;;;;;;;;;;;;5064269;28;19915;-72
2022/02/22 05:24:39;;;;;;;;;;;;;;;;;;5077718;28;20062;-73
2022/02/22 05:27:05;;;;;;;;;;;;;;;;;;5062736;28;20438;-72
2022/02/22 05:29:30;;;;;;;;;;;;;;;;;;5064062;28;20293;-73
2022/02/22 05:31:56;;;;;;;;;;;;;;;;;;5063922;28;19967;-73
2022/02/22 05:34:21;;;;;;;;;;;;;;;;;;5075298;28;20005;-72
2022/02/22 05:36:48;;;;;;;;;;;;;;;;;;5080750;28;19916;-73
2022/02/22 05:39:13;;;;;;;;;;;;;;;;;;5065328;28;19924;-72
2022/02/22 05:41:38;;;;;;;;;;;;;;;;;;5080704;28;19916;-71
2022/02/22 05:44:04;;;;;;;;;;;;;;;;;;5078132;28;19958;-72
2022/02/22 05:46:30;;;;;;;;;;;;;;;;;;5085959;28;20026;-72
2022/02/22 05:48:56;;;;;;;;;;;;;;;;;;5066782;28;20588;-72
2022/02/22 05:51:21;;;;;;;;;;;;;;;;;;5085921;28;19927;-72
2022/02/22 05:53:48;;;;;;;;;;;;;;;;;;5086141;28;20136;-73
2022/02/22 05:56:13;;;;;;;;;;;;;;;;;;5085727;28;19927;-73
2022/02/22 05:58:39;;;;;;;;;;;;;;;;;;5067536;28;19916;-72
2022/02/22 06:01:04;;;;;;;;;;;;;;;;;;5067706;28;19946;-71
2022/02/22 06:03:30;;;;;;;;;;;;;;;;;;5076520;28;20369;-73
2022/02/22 06:05:57;;;;;;;;;;;;;;;;;;5084728;28;20019;-71
2022/02/22 06:08:22;;;;;;;;;;;;;;;;;;5085609;28;19995;-74
2022/02/22 06:10:48;;;;;;;;;;;;;;;;;;5072937;28;19936;-73
2022/02/22 06:13:14;;;;;;;;;;;;;;;;;;5079523;28;20015;-71
2022/02/22 06:15:39;;;;;;;;;;;;;;;;;;5042134;28;19920;-72
2022/02/22 06:18:05;;;;;;;;;;;;;;;;;;5087570;28;19962;-73
2022/02/22 06:20:32;;;;;;;;;;;;;;;;;;5083781;28;19994;-73
2022/02/22 06:22:58;;;;;;;;;;;;;;;;;;5070777;28;19920;-72
2022/02/22 06:25:26;;;;;;;;;;;;;;;;;;5079002;28;20380;-73
2022/02/22 06:27:52;;;;;;;;;;;;;;;;;;5081649;28;20338;-73
2022/02/22 06:30:18;;;;;;;;;;;;;;;;;;5066629;28;19920;-73
2022/02/22 06:32:44;;;;;;;;;;;;;;;;;;5066717;28;20011;-72
2022/02/22 06:35:09;;;;;;;;;;;;;;;;;;5060331;28;20006;-73
2022/02/22 06:37:35;;;;;;;;;;;;;;;;;;5066534;28;20384;-73
2022/02/22 06:40:02;;;;;;;;;;;;;;;;;;5067541;28;19927;-72
2022/02/22 06:42:28;;;;;;;;;;;;;;;;;;5085252;28;20356;-72
2022/02/22 06:44:53;;;;;;;;;;;;;;;;;;5085043;28;19927;-73
2022/02/22 06:47:19;;;;;;;;;;;;;;;;;;5084831;28;20335;-75
2022/02/22 06:49:44;;;;;;;;;;;;;;;;;;5066999;28;20360;-74
2022/02/22 06:52:09;;;;;;;;;;;;;;;;;;5085048;28;19931;-76
2022/02/22 06:54:35;;;;;;;;;;;;;;;;;;5062588;28;20400;-74
2022/02/22 06:57:00;;;;;;;;;;;;;;;;;;5086242;28;20355;-74
2022/02/22 06:59:27;;;;;;;;;;;;;;;;;;5086505;28;19920;-77
2022/02/22 07:01:52;;;;;;;;;;;;;;;;;;5081290;28;19930;-75
2022/02/22 07:04:17;;;;;;;;;;;;;;;;;;5085871;28;19999;-75
2022/02/22 07:06:43;;;;;;;;;;;;;;;;;;5066012;28;19916;-75
2022/02/22 07:09:08;;;;;;;;;;;;;;;;;;5084547;28;20503;-75
2022/02/22 07:11:34;;;;;;;;;;;;;;;;;;5090054;28;20322;-75
2022/02/22 07:13:59;;;;;;;;;;;;;;;;;;5070053;28;19974;-73
2022/02/22 07:16:24;;;;;;;;;;;;;;;;;;5079496;28;19923;-72
2022/02/22 07:18:50;;;;;;;;;;;;;;;;;;5078390;28;19917;-75
2022/02/22 07:21:16;;;;;;;;;;;;;;;;;;5066690;28;20376;-75
2022/02/22 07:23:41;;;;;;;;;;;;;;;;;;5074699;28;20570;-73
2022/02/22 07:26:06;;;;;;;;;;;;;;;;;;5029491;28;20256;-75
2022/02/22 07:28:32;;;;;;;;;;;;;;;;;;5059846;28;20010;-74
2022/02/22 07:30:57;;;;;;;;;;;;;;;;;;5060216;28;20091;-74
2022/02/22 07:33:22;;;;;;;;;;;;;;;;;;5062624;28;19935;-74
2022/02/22 07:35:48;;;;;;;;;;;;;;;;;;5063054;28;19923;-72
2022/02/22 07:38:13;;;;;;;;;;;;;;;;;;5061911;28;19970;-73
2022/02/22 07:40:39;;;;;;;;;;;;;;;;;;5062712;28;19928;-75
2022/02/22 07:43:04;;;;;;;;;;;;;;;;;;5058302;28;19921;-72
2022/02/22 07:45:31;;;;;;;;;;;;;;;;;;5041163;28;19920;-76
2022/02/22 07:47:57;;;;;;;;;;;;;;;;;;5044323;28;19920;-74
2022/02/22 07:50:25;;;;;;;;;;;;;;;;;;5059982;28;19916;-74
2022/02/22 07:52:50;;;;;;;;;;;;;;;;;;5060492;28;19927;-73
2022/02/22 07:55:16;;;;;;;;;;;;;;;;;;5060203;28;19920;-73
2022/02/22 07:57:41;;;;;;;;;;;;;;;;;;5061718;28;19928;-75
2022/02/22 08:00:08;;;;;;;;;;;;;;;;;;5062270;28;21013;-74
2022/02/22 08:02:33;;;;;;;;;;;;;;;;;;5063775;28;20404;-72
2022/02/22 08:04:59;;;;;;;;;;;;;;;;;;5061017;28;20299;-74
2022/02/22 08:07:24;;;;;;;;;;;;;;;;;;5053456;28;19926;-72
2022/02/22 08:09:50;;;;;;;;;;;;;;;;;;5058834;28;19927;-71
2022/02/22 08:12:15;;;;;;;;;;;;;;;;;;5061485;28;20030;-74
2022/02/22 08:14:41;;;;;;;;;;;;;;;;;;5041093;28;19924;-75
2022/02/22 08:17:06;;;;;;;;;;;;;;;;;;5062046;28;19924;-74
2022/02/22 08:19:32;;;;;;;;;;;;;;;;;;5061210;28;19959;-74
2022/02/22 08:21:57;;;;;;;;;;;;;;;;;;5058290;28;20231;-74
2022/02/22 08:24:24;;;;;;;;;;;;;;;;;;5057239;28;20019;-73
2022/02/22 08:26:53;;;;;;;;;;;;;;;;;;5059789;28;19924;-75
2022/02/22 08:29:18;;;;;;;;;;;;;;;;;;5055883;28;20312;-72
2022/02/22 08:31:44;;;;;;;;;;;;;;;;;;5061882;28;19932;-75
2022/02/22 08:34:09;;;;;;;;;;;;;;;;;;5058869;28;19920;-75
2022/02/22 08:36:35;;;;;;;;;;;;;;;;;;5041771;28;19979;-73
2022/02/22 08:39:00;;;;;;;;;;;;;;;;;;5042367;28;20384;-73
2022/02/22 08:41:26;;;;;;;;;;;;;;;;;;5059911;28;20005;-75
2022/02/22 08:43:52;;;;;;;;;;;;;;;;;;5054379;28;19916;-72
2022/02/22 08:46:18;;;;;;;;;;;;;;;;;;5058101;28;19924;-75
2022/02/22 08:48:44;;;;;;;;;;;;;;;;;;5059468;28;19931;-76
2022/02/22 08:51:10;;;;;;;;;;;;;;;;;;5062225;28;19961;-75
2022/02/22 08:53:38;;;;;;;;;;;;;;;;;;5055675;28;20812;-76
2022/02/22 08:56:05;;;;;;;;;;;;;;;;;;5060406;28;20074;-75
2022/02/22 08:58:30;;;;;;;;;;;;;;;;;;5041915;28;20028;-72
2022/02/22 09:00:56;;;;;;;;;;;;;;;;;;5060194;28;19924;-74
2022/02/22 09:03:21;;;;;;;;;;;;;;;;;;5047202;28;19920;-73
2022/02/22 09:05:46;;;;;;;;;;;;;;;;;;5060378;28;19928;-75
2022/02/22 09:08:15;;;;;;;;;;;;;;;;;;5057033;28;19959;-71
2022/02/22 09:10:41;;;;;;;;;;;;;;;;;;5058053;28;19924;-73
2022/02/22 09:13:07;;;;;;;;;;;;;;;;;;5048009;28;20680;-74
2022/02/22 09:15:32;;;;;;;;;;;;;;;;;;5045309;28;19935;-74
2022/02/22 09:17:59;;;;;;;;;;;;;;;;;;5061001;28;20327;-74
2022/02/22 09:20:25;;;;;;;;;;;;;;;;;;5044640;28;19927;-75
2022/02/22 09:22:51;;;;;;;;;;;;;;;;;;5064614;28;20304;-74
2022/02/22 09:25:21;;;;;;;;;;;;;;;;;;5066731;28;19943;-73
2022/02/22 09:27:47;;;;;;;;;;;;;;;;;;5068086;28;20034;-73
2022/02/22 09:30:14;;;;;;;;;;;;;;;;;;5035582;28;20284;-74
2022/02/22 09:32:40;;;;;;;;;;;;;;;;;;5063294;28;20015;-74
2022/02/22 09:35:05;;;;;;;;;;;;;;;;;;5068320;28;20020;-73
2022/02/22 09:37:31;;;;;;;;;;;;;;;;;;5059576;28;20077;-76
2022/02/22 09:39:56;;;;;;;;;;;;;;;;;;5053795;28;20342;-71
2022/02/22 09:42:25;;;;;;;;;;;;;;;;;;5067865;28;19924;-72
2022/02/22 09:44:51;;;;;;;;;;;;;;;;;;5051009;28;20337;-75
2022/02/22 09:47:17;;;;;;;;;;;;;;;;;;5064161;28;19981;-73
2022/02/22 09:49:42;;;;;;;;;;;;;;;;;;5066155;28;19981;-76
2022/02/22 09:52:07;;;;;;;;;;;;;;;;;;5047716;28;19928;-74
2022/02/22 09:54:33;;;;;;;;;;;;;;;;;;5059322;28;19928;-73
2022/02/22 09:56:59;;;;;;;;;;;;;;;;;;5061866;28;20411;-75
2022/02/22 09:59:25;;;;;;;;;;;;;;;;;;5063602;28;20399;-74
2022/02/22 10:01:51;;;;;;;;;;;;;;;;;;5049117;28;19952;-75
2022/02/22 10:04:17;;;;;;;;;;;;;;;;;;5060738;28;19946;-72
2022/02/22 10:06:43;;;;;;;;;;;;;;;;;;5062892;28;20539;-74
2022/02/22 10:09:09;;;;;;;;;;;;;;;;;;5034998;28;19924;-73
2022/02/22 10:11:51;;;;;;;;;;;;;;;;;;5063136;28;19939;-74
2022/02/22 10:14:26;;;;;;;;;;;;;;;;;;5061271;28;19931;-71
2022/02/22 10:16:54;;;;;;;;;;;;;;;;;;5060674;28;20745;-72
2022/02/22 10:19:20;;;;;;;;;;;;;;;;;;5060196;28;19948;-74
2022/02/22 10:21:56;;;;;;;;;;;;;;;;;;5062129;28;20483;-73
2022/02/22 10:24:23;;;;;;;;;;;;;;;;;;5060043;28;20001;-72
2022/02/22 10:26:58;;;;;;;;;;;;;;;;;;5063674;28;19925;-72
2022/02/22 10:29:25;;;;;;;;;;;;;;;;;;5061089;28;19967;-75
2022/02/22 10:32:13;;;;;;;;;;;;;;;;;;5063739;28;19920;-72
2022/02/22 10:34:38;;;;;;;;;;;;;;;;;;5061122;28;19924;-74
2022/02/22 10:37:04;;;;;;;;;;;;;;;;;;5065332;28;19919;-74
2022/02/22 10:39:29;;;;;;;;;;;;;;;;;;5048600;28;19921;-73
2022/02/22 10:41:56;;;;;;;;;;;;;;;;;;5059480;28;19916;-72
2022/02/22 10:44:35;;;;;;;;;;;;;;;;;;5040698;28;20128;-73
2022/02/22 10:47:01;;;;;;;;;;;;;;;;;;5043156;28;19924;-72
2022/02/22 10:49:34;;;;;;;;;;;;;;;;;;5051726;28;19938;-73
2022/02/22 10:52:06;;;;;;;;;;;;;;;;;;5063317;28;19932;-77
2022/02/22 10:54:31;;;;;;;;;;;;;;;;;;5060012;28;20031;-75
2022/02/22 10:56:56;;;;;;;;;;;;;;;;;;5057773;28;19924;-72
2022/02/22 10:59:23;;;;;;;;;;;;;;;;;;5053058;28;19924;-70
2022/02/22 11:01:55;;;;;;;;;;;;;;;;;;5052479;28;19931;-73
2022/02/22 11:04:20;;;;;;;;;;;;;;;;;;5048751;28;19916;-74
2022/02/22 11:06:46;;;;;;;;;;;;;;;;;;5045211;28;20249;-72
2022/02/22 11:09:18;;;;;;;;;;;;;;;;;;5043286;28;19924;-73
2022/02/22 11:11:50;;;;;;;;;;;;;;;;;;5039965;28;20011;-76
2022/02/22 11:14:29;;;;;;;;;;;;;;;;;;5060708;28;19928;-74
2022/02/22 11:16:56;;;;;;;;;;;;;;;;;;5055134;28;20452;-73
2022/02/22 11:19:22;;;;;;;;;;;;;;;;;;5056003;28;19920;-73
2022/02/22 11:21:50;;;;;;;;;;;;;;;;;;5066305;28;19925;-74
2022/02/22 11:24:18;;;;;;;;;;;;;;;;;;5055257;28;20016;-76
2022/02/22 11:27:01;;;;;;;;;;;;;;;;;;5062933;28;19970;-72
2022/02/22 11:29:29;;;;;;;;;;;;;;;;;;5054248;28;19920;-74
2022/02/22 11:32:03;;;;;;;;;;;;;;;;;;5066119;28;19923;-74
2022/02/22 11:34:36;;;;;;;;;;;;;;;;;;5062109;28;19921;-73
2022/02/22 11:37:03;;;;;;;;;;;;;;;;;;5050012;28;20360;-73
2022/02/22 11:39:29;;;;;;;;;;;;;;;;;;5050749;28;19938;-71
2022/02/22 11:41:55;;;;;;;;;;;;;;;;;;5064579;28;19934;-73
2022/02/22 11:44:22;;;;;;;;;;;;;;;;;;5063334;28;19924;-75
2022/02/22 11:46:52;;;;;;;;;;;;;;;;;;5063437;28;19920;-73
2022/02/22 11:49:25;;;;;;;;;;;;;;;;;;5058775;28;21250;-73
2022/02/22 11:52:14;;;;;;;;;;;;;;;;;;5065850;28;19920;-72
2022/02/22 11:54:41;;;;;;;;;;;;;;;;;;5058918;28;19950;-73
2022/02/22 11:57:11;;;;;;;;;;;;;;;;;;5040833;28;20607;-73
2022/02/22 11:59:59;;;;;;;;;;;;;;;;;;5061599;28;19931;-73
2022/02/22 12:02:32;;;;;;;;;;;;;;;;;;5052313;28;19946;-72
2022/02/22 12:05:01;;;;;;;;;;;;;;;;;;5050486;28;19943;-73
2022/02/22 12:07:31;;;;;;;;;;;;;;;;;;5063925;28;19924;-73
2022/02/22 12:09:58;;;;;;;;;;;;;;;;;;5060117;28;19991;-74
2022/02/22 12:12:25;;;;;;;;;;;;;;;;;;5062301;28;19916;-73
2022/02/22 12:14:52;;;;;;;;;;;;;;;;;;5048840;28;19939;-72
2022/02/22 12:17:17;;;;;;;;;;;;;;;;;;5044905;28;20293;-72
2022/02/22 12:19:46;;;;;;;;;;;;;;;;;;5062538;28;19961;-73
2022/02/22 12:22:15;;;;;;;;;;;;;;;;;;5064299;28;19921;-73
2022/02/22 12:24:41;;;;;;;;;;;;;;;;;;5051665;28;19920;-72
2022/02/22 12:27:13;;;;;;;;;;;;;;;;;;5050722;28;19923;-73
2022/02/22 12:29:39;;;;;;;;;;;;;;;;;;5056196;28;20451;-72
2022/02/22 12:32:04;;;;;;;;;;;;;;;;;;5054964;28;20012;-73
2022/02/22 12:34:30;;;;;;;;;;;;;;;;;;5059578;28;20428;-73
2022/02/22 12:36:58;;;;;;;;;;;;;;;;;;5063935;28;19926;-72
2022/02/22 12:39:25;;;;;;;;;;;;;;;;;;5059453;28;19920;-73
2022/02/22 12:41:54;;;;;;;;;;;;;;;;;;5046489;28;19931;-75
2022/02/22 12:44:20;;;;;;;;;;;;;;;;;;5060465;28;19955;-72
2022/02/22 12:46:46;;;;;;;;;;;;;;;;;;5049493;28;19920;-72
2022/02/22 12:49:13;;;;;;;;;;;;;;;;;;5046601;28;19924;-73
2022/02/22 12:51:39;;;;;;;;;;;;;;;;;;5050576;28;19920;-73
2022/02/22 12:54:09;;;;;;;;;;;;;;;;;;5057236;28;19916;-73
2022/02/22 12:56:38;;;;;;;;;;;;;;;;;;5054724;28;19950;-73
2022/02/22 12:59:08;;;;;;;;;;;;;;;;;;5056002;28;19931;-74
2022/02/22 13:01:37;;;;;;;;;;;;;;;;;;5062762;28;19948;-73
2022/02/22 13:04:08;;;;;;;;;;;;;;;;;;5058891;28;19924;-73
2022/02/22 13:06:36;;;;;;;;;;;;;;;;;;5042689;28;20009;-73
2022/02/22 13:09:03;;;;;;;;;;;;;;;;;;5044771;28;19923;-74
2022/02/22 13:11:33;;;;;;;;;;;;;;;;;;5056809;28;19946;-73
2022/02/22 13:13:58;;;;;;;;;;;;;;;;;;5046647;28;19924;-73
2022/02/22 13:16:24;;;;;;;;;;;;;;;;;;5050348;28;19947;-73
2022/02/22 13:18:54;;;;;;;;;;;;;;;;;;5049989;28;19928;-73
2022/02/22 13:21:21;;;;;;;;;;;;;;;;;;5063143;28;20376;-73
2022/02/22 13:23:48;;;;;;;;;;;;;;;;;;5063642;28;19981;-72
2022/02/22 13:26:14;;;;;;;;;;;;;;;;;;5042945;28;19978;-71
2022/02/22 13:28:41;;;;;;;;;;;;;;;;;;5057644;28;20021;-73
2022/02/22 13:31:15;;;;;;;;;;;;;;;;;;5063522;28;19995;-73
2022/02/22 13:33:41;;;;;;;;;;;;;;;;;;5048050;28;19927;-73
2022/02/22 13:36:14;;;;;;;;;;;;;;;;;;5045576;28;19925;-73
2022/02/22 13:38:41;;;;;;;;;;;;;;;;;;5049502;28;20031;-72
2022/02/22 13:41:07;;;;;;;;;;;;;;;;;;5049747;28;19928;-72
2022/02/22 13:43:33;;;;;;;;;;;;;;;;;;5059151;28;20052;-73
2022/02/22 13:46:02;;;;;;;;;;;;;;;;;;5062318;28;20588;-73
2022/02/22 13:48:31;;;;;;;;;;;;;;;;;;5064513;28;19920;-73
2022/02/22 13:51:09;;;;;;;;;;;;;;;;;;5062160;28;19921;-74
2022/02/22 13:53:35;;;;;;;;;;;;;;;;;;5042675;28;20261;-72
2022/02/22 13:56:02;;;;;;;;;;;;;;;;;;5065195;28;19928;-73
2022/02/22 13:58:29;;;;;;;;;;;;;;;;;;5065338;28;20014;-74
2022/02/22 14:00:59;;;;;;;;;;;;;;;;;;5048016;28;20339;-72
2022/02/22 14:03:25;;;;;;;;;;;;;;;;;;5057432;28;19948;-73
2022/02/22 14:05:50;;;;;;;;;;;;;;;;;;5047661;28;19924;-71
2022/02/22 14:08:16;;;;;;;;;;;;;;;;;;5062330;28;19924;-72
2022/02/22 14:10:45;;;;;;;;;;;;;;;;;;5064163;28;19924;-73
2022/02/22 14:13:11;;;;;;;;;;;;;;;;;;5064434;28;20044;-74
2022/02/22 14:15:36;;;;;;;;;;;;;;;;;;5062091;28;19995;-72
2022/02/22 14:18:03;;;;;;;;;;;;;;;;;;5048136;28;19924;-73
2022/02/22 14:20:30;;;;;;;;;;;;;;;;;;5051357;28;19931;-72
2022/02/22 14:22:57;;;;;;;;;;;;;;;;;;5049961;28;20061;-73
2022/02/22 14:25:23;;;;;;;;;;;;;;;;;;5052935;28;20038;-74
2022/02/22 14:27:48;;;;;;;;;;;;;;;;;;5036691;28;20051;-73
2022/02/22 14:30:15;;;;;;;;;;;;;;;;;;5069299;28;19923;-74
2022/02/22 14:32:40;;;;;;;;;;;;;;;;;;5063661;28;19942;-72
2022/02/22 14:35:07;;;;;;;;;;;;;;;;;;5071037;28;19912;-73
2022/02/22 14:37:32;;;;;;;;;;;;;;;;;;5043075;28;19982;-73
2022/02/22 14:39:58;;;;;;;;;;;;;;;;;;5052858;28;19964;-73
2022/02/22 14:42:23;;;;;;;;;;;;;;;;;;5057307;28;19921;-73
2022/02/22 14:44:48;;;;;;;;;;;;;;;;;;5051615;28;20016;-72
2022/02/22 14:47:14;;;;;;;;;;;;;;;;;;5050412;28;19935;-73
2022/02/22 14:49:39;;;;;;;;;;;;;;;;;;5043267;28;19924;-72
2022/02/22 14:52:06;;;;;;;;;;;;;;;;;;5046381;28;19920;-73
2022/02/22 14:54:32;;;;;;;;;;;;;;;;;;5053183;28;19921;-73
2022/02/22 14:56:57;;;;;;;;;;;;;;;;;;5048652;28;19921;-73
2022/02/22 14:59:22;;;;;;;;;;;;;;;;;;5043199;28;19975;-74
2022/02/22 15:01:48;;;;;;;;;;;;;;;;;;5042212;28;19924;-73
2022/02/22 15:04:13;;;;;;;;;;;;;;;;;;5040770;28;19921;-73
2022/02/22 15:06:40;;;;;;;;;;;;;;;;;;5047149;28;20012;-73
2022/02/22 15:09:05;;;;;;;;;;;;;;;;;;5040329;28;20379;-73
2022/02/22 15:11:31;;;;;;;;;;;;;;;;;;5045000;28;20000;-73
2022/02/22 15:13:56;;;;;;;;;;;;;;;;;;5052948;28;20291;-74
2022/02/22 15:16:24;;;;;;;;;;;;;;;;;;5053999;28;19925;-74
2022/02/22 15:18:50;;;;;;;;;;;;;;;;;;5046420;28;19917;-73
2022/02/22 15:21:15;;;;;;;;;;;;;;;;;;5043891;28;20332;-74
2022/02/22 15:23:40;;;;;;;;;;;;;;;;;;5042367;28;19928;-73
2022/02/22 15:26:07;;;;;;;;;;;;;;;;;;5041086;28;20316;-74
2022/02/22 15:28:33;;;;;;;;;;;;;;;;;;5048990;28;19920;-74
2022/02/22 15:31:00;;;;;;;;;;;;;;;;;;5035829;28;19917;-72
2022/02/22 15:33:27;;;;;;;;;;;;;;;;;;5045108;28;19924;-73
2022/02/22 15:35:54;;;;;;;;;;;;;;;;;;5050694;28;19953;-75
2022/02/22 15:38:20;;;;;;;;;;;;;;;;;;5046953;28;19921;-74
2022/02/22 15:40:46;;;;;;;;;;;;;;;;;;5022971;28;19932;-74
2022/02/22 15:43:12;;;;;;;;;;;;;;;;;;5029458;28;20441;-74
2022/02/22 15:45:39;;;;;;;;;;;;;;;;;;5032455;28;20059;-73
2022/02/22 15:48:04;;;;;;;;;;;;;;;;;;5027280;28;19917;-75
2022/02/22 15:50:30;;;;;;;;;;;;;;;;;;5028381;28;19917;-74
2022/02/22 15:52:57;;;;;;;;;;;;;;;;;;5031646;28;19924;-74
2022/02/22 15:55:22;;;;;;;;;;;;;;;;;;5027544;28;20000;-74
2022/02/22 15:57:48;;;;;;;;;;;;;;;;;;5029561;28;20027;-74
2022/02/22 16:00:15;;;;;;;;;;;;;;;;;;5024295;28;20423;-74
2022/02/22 16:02:42;;;;;;;;;;;;;;;;;;5019898;28;19921;-73
2022/02/22 16:05:08;;;;;;;;;;;;;;;;;;5022684;28;20008;-74
2022/02/22 16:07:35;;;;;;;;;;;;;;;;;;5015451;28;20032;-73
2022/02/22 16:10:02;;;;;;;;;;;;;;;;;;5024359;28;19924;-73
2022/02/22 16:12:34;;;;;;;;;;;;;;;;;;5015191;28;19936;-73
2022/02/22 16:14:59;;;;;;;;;;;;;;;;;;5028676;28;20381;-73
2022/02/22 16:17:25;;;;;;;;;;;;;;;;;;5029335;28;19927;-73
2022/02/22 16:19:50;;;;;;;;;;;;;;;;;;5029336;28;20293;-74
2022/02/22 16:22:16;;;;;;;;;;;;;;;;;;5029767;28;20327;-73
2022/02/22 16:24:41;;;;;;;;;;;;;;;;;;5029709;28;19990;-73
2022/02/22 16:27:07;;;;;;;;;;;;;;;;;;5028724;28;19960;-73
2022/02/22 16:29:32;;;;;;;;;;;;;;;;;;5026672;28;19928;-74
2022/02/22 16:32:00;;;;;;;;;;;;;;;;;;5028247;28;19924;-73
2022/02/22 16:34:26;;;;;;;;;;;;;;;;;;5029092;28;19918;-73
2022/02/22 16:36:52;;;;;;;;;;;;;;;;;;5029569;28;19928;-73
2022/02/22 16:39:17;;;;;;;;;;;;;;;;;;5033310;28;19928;-73
2022/02/22 16:41:43;;;;;;;;;;;;;;;;;;5050126;28;19913;-73